Terminal Aerodrome Forecast
Issued by NWS Quad Cities IA IL

Home | Current Version | Previous Version | Text Only | Print | Product List | Glossary On
Versions: 1 2 3 4 5 6 7 8 9 10 11 12 13 14 15 16 17 18 19 20
456
FTUS43 KDVN 262322
TAFMLI
TAF
KMLI 262322Z 2700/2724 24007KT P6SM BKN060
     FM270400 28005KT P6SM SCT100
     FM271000 VRB03KT 4SM BR SKC
      TEMPO 2711/2715 1 1/2SM BR BKN008
     FM271600 17008KT P6SM SCT040=

USA.gov is the U.S. government's official web portal to all federal, state and local government web resources and services.